Time;durP1;ratioP1;P1;durP2;ratioP2;P2;SDS_P1;SDS_P2;PMS_P1;PMS_P2;Temp;Humidity;BMP_temperature;BMP_pressure;BME280_temperature;BME280_humidity;BME280_pressure;Samples;Min_cycle;Max_cycle;Signal;HPM_P1;HPM_P2
2021/11/18 00:02:30;;;;;;;59.80;35.70;;;;;;;5.83;79.28;99405.74;2093401;85;20988;-81
2021/11/18 00:05:31;;;;;;;69.87;39.03;;;;;;;5.80;79.46;99401.33;2094142;85;21355;-81
2021/11/18 00:08:31;;;;;;;61.13;35.23;;;;;;;5.76;79.74;99408.09;2093618;85;21008;-80
2021/11/18 00:11:32;;;;;;;57.50;35.17;;;;;;;5.75;79.94;99403.73;2093761;85;20956;-80
2021/11/18 00:14:32;;;;;;;58.77;35.63;;;;;;;5.71;80.09;99414.80;2093500;85;21055;-78
2021/11/18 00:17:33;;;;;;;57.63;34.73;;;;;;;5.66;80.18;99405.08;2094066;85;20972;-80
2021/11/18 00:20:35;;;;;;;59.47;35.90;;;;;;;5.66;80.54;99396.02;2094142;85;21035;-80
2021/11/18 00:23:35;;;;;;;57.60;34.03;;;;;;;5.65;80.47;99400.30;2093586;85;20961;-80
2021/11/18 00:26:37;;;;;;;59.47;35.67;;;;;;;5.66;80.58;99403.37;2093895;85;21375;-79
2021/11/18 00:29:37;;;;;;;65.17;38.27;;;;;;;5.66;80.71;99405.08;2094094;85;20952;-80
2021/11/18 00:32:38;;;;;;;55.80;32.13;;;;;;;5.65;80.74;99402.89;2093484;85;20977;-80
2021/11/18 00:35:38;;;;;;;60.57;36.03;;;;;;;5.67;80.99;99406.44;2093692;85;20995;-81
2021/11/18 00:38:39;;;;;;;54.50;31.83;;;;;;;5.65;80.84;99400.30;2093957;85;21031;-80
2021/11/18 00:41:39;;;;;;;56.20;33.23;;;;;;;5.66;80.91;99399.89;2093194;85;20980;-81
2021/11/18 00:44:40;;;;;;;62.27;33.83;;;;;;;5.65;80.85;99393.83;2092966;85;20980;-80
2021/11/18 00:47:40;;;;;;;59.07;34.17;;;;;;;5.61;80.90;99402.30;2093088;85;20988;-80
2021/11/18 00:50:41;;;;;;;56.77;34.83;;;;;;;5.61;80.77;99404.89;2092753;85;21323;-79
2021/11/18 00:53:41;;;;;;;57.67;34.17;;;;;;;5.61;81.03;99401.00;2087732;83;20992;-79
2021/11/18 00:56:42;;;;;;;56.50;34.17;;;;;;;5.60;80.85;99402.23;2087425;85;20968;-80
2021/11/18 00:59:46;;;;;;;56.47;34.27;;;;;;;5.60;80.77;99403.12;2087450;85;20963;-80
2021/11/18 01:02:45;;;;;;;59.67;33.77;;;;;;;5.64;80.71;99395.95;2087769;84;21008;-79
2021/11/18 01:05:45;;;;;;;56.00;33.23;;;;;;;5.69;80.67;99389.66;2087788;85;20940;-80
2021/11/18 01:08:46;;;;;;;54.63;33.43;;;;;;;5.69;80.52;99390.95;2088349;85;20960;-80
2021/11/18 01:11:49;;;;;;;57.93;33.17;;;;;;;5.71;80.43;99396.66;2088567;85;20964;-80
2021/11/18 01:14:49;;;;;;;52.50;31.90;;;;;;;5.72;80.34;99401.44;2088519;85;20988;-80
2021/11/18 01:17:49;;;;;;;55.13;32.13;;;;;;;5.71;80.26;99396.66;2088450;85;20948;-80
2021/11/18 01:20:50;;;;;;;59.50;32.67;;;;;;;5.71;80.22;99385.42;2089168;84;21031;-81
2021/11/18 01:23:50;;;;;;;50.00;31.07;;;;;;;5.71;80.11;99392.78;2087852;85;20999;-80
2021/11/18 01:26:51;;;;;;;54.70;31.13;;;;;;;5.66;80.03;99381.35;2088416;85;20939;-80
2021/11/18 01:29:54;;;;;;;51.23;29.77;;;;;;;5.65;80.09;99378.30;2088572;85;21295;-82
2021/11/18 01:32:54;;;;;;;51.83;30.97;;;;;;;5.67;80.04;99390.89;2088397;85;21002;-80
2021/11/18 01:35:54;;;;;;;52.27;32.17;;;;;;;5.66;79.90;99393.42;2088433;85;21013;-80
2021/11/18 01:38:55;;;;;;;52.23;30.40;;;;;;;5.65;79.92;99397.72;2088818;85;20948;-81
2021/11/18 01:41:56;;;;;;;55.17;33.07;;;;;;;5.66;79.98;99399.89;2088603;85;20944;-81
2021/11/18 01:44:56;;;;;;;55.47;31.50;;;;;;;5.66;79.86;99408.96;2088028;85;21320;-79
2021/11/18 01:47:56;;;;;;;52.07;30.87;;;;;;;5.69;79.91;99394.42;2087982;85;20951;-81
2021/11/18 01:50:57;;;;;;;56.30;32.40;;;;;;;5.71;79.86;99399.67;2088946;84;21007;-81
2021/11/18 01:53:57;;;;;;;51.73;29.77;;;;;;;5.72;79.77;99394.55;2093104;84;21003;-81
2021/11/18 01:56:58;;;;;;;48.47;31.40;;;;;;;5.68;79.66;99396.55;2093810;85;20951;-79
2021/11/18 01:59:58;;;;;;;52.73;30.73;;;;;;;5.70;79.59;99405.26;2093737;85;20972;-79
2021/11/18 02:02:59;;;;;;;53.27;32.57;;;;;;;5.74;79.54;99403.27;2093627;85;21339;-79
2021/11/18 02:06:00;;;;;;;50.37;30.33;;;;;;;5.71;79.29;99402.25;2093750;85;21439;-81
2021/11/18 02:09:01;;;;;;;47.27;28.33;;;;;;;5.66;79.30;99408.55;2093672;85;21056;-78
2021/11/18 02:12:01;;;;;;;55.13;31.23;;;;;;;5.66;79.37;99403.78;2093476;85;20991;-80
2021/11/18 02:15:01;;;;;;;49.67;30.27;;;;;;;5.65;79.43;99395.12;2093442;85;21032;-80
2021/11/18 02:18:02;;;;;;;52.10;31.50;;;;;;;5.68;79.38;99395.66;2093833;85;20983;-80
2021/11/18 02:21:02;;;;;;;52.73;30.23;;;;;;;5.70;79.25;99402.67;2093305;85;21032;-82
2021/11/18 02:24:03;;;;;;;50.13;30.47;;;;;;;5.71;79.28;99395.38;2093200;85;20980;-81
2021/11/18 02:27:03;;;;;;;49.97;29.33;;;;;;;5.73;79.21;99400.20;2093654;85;20979;-81
2021/11/18 02:30:04;;;;;;;44.87;28.67;;;;;;;5.76;79.23;99402.91;2093338;85;21371;-80
2021/11/18 02:33:04;;;;;;;46.73;27.83;;;;;;;5.75;79.07;99410.62;2093962;85;21303;-80
2021/11/18 02:36:05;;;;;;;50.20;29.73;;;;;;;5.73;79.05;99422.63;2093826;85;21051;-80
2021/11/18 02:39:05;;;;;;;49.40;29.80;;;;;;;5.67;79.10;99418.50;2093842;85;20968;-80
2021/11/18 02:42:06;;;;;;;58.50;33.53;;;;;;;5.64;79.34;99429.62;2093650;85;20968;-81
2021/11/18 02:45:06;;;;;;;57.43;32.93;;;;;;;5.65;79.42;99433.09;2093650;85;20972;-81
2021/11/18 02:48:07;;;;;;;50.47;30.57;;;;;;;5.67;79.40;99438.81;2093864;85;21359;-82
2021/11/18 02:51:07;;;;;;;51.80;31.67;;;;;;;5.65;79.47;99432.69;2093814;85;21011;-80
2021/11/18 02:54:08;;;;;;;50.53;32.13;;;;;;;5.65;79.48;99443.45;2093777;85;21021;-81
2021/11/18 02:57:08;;;;;;;53.53;33.10;;;;;;;5.65;79.62;99435.68;2093674;85;20960;-81
2021/11/18 03:00:09;;;;;;;50.13;31.40;;;;;;;5.63;79.93;99445.98;2093511;85;20964;-81
2021/11/18 03:03:09;;;;;;;55.47;32.13;;;;;;;5.61;80.02;99445.45;2094005;85;20972;-79
2021/11/18 03:06:10;;;;;;;49.57;31.87;;;;;;;5.59;80.00;99440.20;2094162;85;20948;-82
2021/11/18 03:09:10;;;;;;;55.97;32.07;;;;;;;5.59;80.16;99441.50;2094054;85;20979;-80
2021/11/18 03:12:11;;;;;;;46.77;28.53;;;;;;;5.58;80.20;99444.91;2093958;85;21431;-82
2021/11/18 03:15:11;;;;;;;52.27;31.60;;;;;;;5.58;80.29;99442.31;2093992;85;21015;-81
2021/11/18 03:18:12;;;;;;;48.73;31.33;;;;;;;5.54;80.62;99451.20;2093800;85;21000;-78
2021/11/18 03:24:14;;;;;;;52.37;30.87;;;;;;;5.52;81.50;99453.72;2075640;85;20991;-82
2021/11/18 03:27:15;;;;;;;56.47;32.17;;;;;;;5.50;81.64;99446.71;2093862;85;21265;-80
2021/11/18 03:30:16;;;;;;;53.20;31.77;;;;;;;5.49;81.48;99449.71;2093882;85;20983;-80
2021/11/18 03:33:16;;;;;;;47.23;28.67;;;;;;;5.48;81.78;99454.83;2093922;85;20999;-81
2021/11/18 03:36:16;;;;;;;49.50;31.63;;;;;;;5.48;82.48;99457.00;2093208;85;21004;-79
2021/11/18 03:39:17;;;;;;;50.13;28.57;;;;;;;5.46;82.51;99453.47;2093728;85;20960;-80
2021/11/18 03:42:17;;;;;;;42.53;27.67;;;;;;;5.44;83.61;99460.28;2093877;85;21308;-81
2021/11/18 03:45:18;;;;;;;50.47;30.20;;;;;;;5.40;83.76;99466.16;2093470;85;20979;-80
2021/11/18 03:48:20;;;;;;;42.40;25.67;;;;;;;5.35;83.84;99470.26;2093778;85;20961;-79
2021/11/18 03:51:20;;;;;;;40.10;27.00;;;;;;;5.29;85.09;99471.30;2093777;85;20991;-80
2021/11/18 03:54:21;;;;;;;51.80;31.40;;;;;;;5.25;85.00;99468.09;2129201;83;21065;-79
2021/11/18 03:57:21;;;;;;;54.37;32.37;;;;;;;5.22;86.09;99461.50;2134062;83;21309;-80
2021/11/18 04:00:22;;;;;;;47.90;29.37;;;;;;;5.22;85.38;99472.73;2133830;83;20960;-81
2021/11/18 04:03:22;;;;;;;43.37;26.77;;;;;;;5.22;86.09;99473.14;2134138;83;20985;-80
2021/11/18 04:06:23;;;;;;;44.87;27.20;;;;;;;5.20;87.04;99469.57;2134097;83;20973;-80
2021/11/18 04:09:23;;;;;;;45.33;28.70;;;;;;;5.19;87.00;99474.27;2133801;83;21353;-81
2021/11/18 04:12:24;;;;;;;42.37;25.97;;;;;;;5.18;86.22;99475.98;2134041;83;21004;-80
2021/11/18 04:15:24;;;;;;;41.57;27.37;;;;;;;5.20;86.64;99481.22;2133662;83;21051;-79
2021/11/18 04:18:25;;;;;;;40.43;25.50;;;;;;;5.18;86.56;99473.80;2133101;83;20981;-78
2021/11/18 04:21:28;;;;;;;34.27;23.50;;;;;;;5.21;86.81;99476.55;2132882;83;21423;-80
2021/11/18 04:24:27;;;;;;;36.83;23.20;;;;;;;5.21;87.10;99472.26;2133729;82;21666;-80
2021/11/18 04:27:28;;;;;;;34.47;21.43;;;;;;;5.21;87.12;99480.02;2134190;83;21055;-81
2021/11/18 04:30:28;;;;;;;33.63;24.13;;;;;;;5.23;87.62;99486.56;2134061;83;21011;-82
2021/11/18 04:33:31;;;;;;;33.63;21.53;;;;;;;5.21;88.15;99489.50;2095179;83;20999;-80
2021/11/18 04:36:31;;;;;;;35.87;21.03;;;;;;;5.21;87.92;99490.37;2134158;83;21008;-80
2021/11/18 04:39:35;;;;;;;25.13;16.67;;;;;;;5.22;88.50;99490.85;2134300;83;20981;-81
2021/11/18 04:42:36;;;;;;;37.08;23.30;;;;;;;5.23;88.61;99495.21;2134106;83;20995;-81
2021/11/18 04:45:36;;;;;;;33.70;22.17;;;;;;;5.25;87.97;99493.98;2133037;83;20933;-82
2021/11/18 04:48:37;;;;;;;30.20;20.30;;;;;;;5.26;89.00;99495.75;2132050;83;20972;-82
2021/11/18 04:51:37;;;;;;;29.87;19.80;;;;;;;5.25;88.17;99491.39;2132832;83;21723;-82
2021/11/18 04:54:38;;;;;;;24.30;17.27;;;;;;;5.26;88.17;99493.16;2110391;83;21419;-81
2021/11/18 04:57:38;;;;;;;28.47;20.30;;;;;;;5.25;89.13;99494.87;2108803;84;20955;-81
2021/11/18 05:00:39;;;;;;;26.53;19.03;;;;;;;5.24;88.53;99493.51;2109717;84;21012;-81
2021/11/18 05:03:39;;;;;;;24.57;17.50;;;;;;;5.23;89.14;99495.21;2110010;84;20994;-84
2021/11/18 05:06:40;;;;;;;28.77;18.43;;;;;;;5.24;89.00;99498.69;2109376;84;20960;-82
2021/11/18 05:09:40;;;;;;;26.23;17.50;;;;;;;5.25;89.00;99510.40;2109540;84;20951;-81
2021/11/18 05:12:41;;;;;;;23.80;16.50;;;;;;;5.26;88.54;99519.05;2109601;84;21351;-81
2021/11/18 05:15:41;;;;;;;23.37;17.17;;;;;;;5.25;88.81;99513.39;2109392;84;21067;-81
2021/11/18 05:18:42;;;;;;;27.07;18.57;;;;;;;5.25;88.18;99514.69;2108927;83;20967;-82
2021/11/18 05:21:43;;;;;;;26.73;17.33;;;;;;;5.26;88.53;99512.58;2107329;84;21018;-78
2021/11/18 05:24:43;;;;;;;31.57;17.73;;;;;;;5.26;88.84;99519.94;2107728;84;20952;-79
2021/11/18 05:27:44;;;;;;;30.83;17.93;;;;;;;5.26;88.19;99522.94;2107949;84;21429;-80
2021/11/18 05:30:44;;;;;;;25.70;16.97;;;;;;;5.26;88.14;99522.52;2107796;84;21371;-81
2021/11/18 05:33:45;;;;;;;24.13;16.30;;;;;;;5.25;88.18;99524.63;2107958;84;21410;-80
2021/11/18 05:36:45;;;;;;;29.43;19.40;;;;;;;5.26;88.42;99525.52;2109117;84;21017;-81
2021/11/18 05:39:46;;;;;;;29.97;20.17;;;;;;;5.24;88.17;99526.75;2109493;84;21038;-82
2021/11/18 05:42:47;;;;;;;29.03;20.00;;;;;;;5.24;87.97;99530.63;2109127;84;20975;-82
2021/11/18 05:45:47;;;;;;;30.97;19.97;;;;;;;5.22;88.05;99532.67;2109429;84;21028;-80
2021/11/18 05:48:48;;;;;;;33.20;23.23;;;;;;;5.20;88.20;99533.91;2108589;84;20995;-82
2021/11/18 05:51:48;;;;;;;35.77;23.27;;;;;;;5.21;88.07;99542.14;2080466;84;21010;-81
2021/11/18 05:54:49;;;;;;;37.83;22.60;;;;;;;5.22;88.14;99545.20;2089120;83;21008;-81
2021/11/18 05:57:50;;;;;;;36.47;23.60;;;;;;;5.27;87.87;99544.11;2086443;85;20968;-81
2021/11/18 06:00:50;;;;;;;35.03;23.57;;;;;;;5.29;87.84;99534.71;2085368;85;21336;-84
2021/11/18 06:03:51;;;;;;;40.97;26.23;;;;;;;5.30;87.73;99541.25;2086034;85;21628;-79
2021/11/18 06:06:52;;;;;;;48.70;26.73;;;;;;;5.32;87.85;99537.02;2086259;85;20916;-82
2021/11/18 06:09:53;;;;;;;41.83;27.60;;;;;;;5.34;87.62;99544.86;2086335;85;20950;-80
2021/11/18 06:12:53;;;;;;;44.27;27.60;;;;;;;5.39;87.64;99545.94;2086411;85;20953;-81
2021/11/18 06:15:54;;;;;;;45.60;26.90;;;;;;;5.43;87.42;99538.78;2086836;85;21060;-83
2021/11/18 06:18:58;;;;;;;48.03;27.90;;;;;;;5.46;87.45;99543.20;2087333;84;20948;-82
2021/11/18 06:21:57;;;;;;;34.60;23.00;;;;;;;5.44;87.06;99533.67;2086082;85;20996;-82
2021/11/18 06:24:58;;;;;;;41.87;25.97;;;;;;;5.50;86.96;99532.16;2087055;85;21435;-79
2021/11/18 06:27:58;;;;;;;35.80;22.87;;;;;;;5.49;86.73;99532.98;2086201;85;20968;-80
2021/11/18 06:31:00;;;;;;;38.90;23.97;;;;;;;5.52;86.48;99538.29;2086543;85;21339;-80
2021/11/18 06:34:00;;;;;;;36.63;22.47;;;;;;;5.55;86.35;99545.78;2086774;85;20996;-80
2021/11/18 06:37:01;;;;;;;32.70;19.60;;;;;;;5.60;86.26;99544.27;2087441;85;21340;-81
2021/11/18 06:40:01;;;;;;;34.93;19.97;;;;;;;5.66;86.13;99543.64;2086445;85;21383;-80
2021/11/18 06:43:02;;;;;;;31.60;18.23;;;;;;;5.69;85.87;99547.25;2086523;85;21451;-80
2021/11/18 06:46:03;;;;;;;29.70;16.80;;;;;;;5.74;85.66;99544.44;2086866;85;21008;-81
2021/11/18 06:49:03;;;;;;;25.97;17.17;;;;;;;5.79;85.66;99543.75;2086803;85;21004;-80
2021/11/18 06:52:04;;;;;;;29.63;17.80;;;;;;;5.89;85.61;99551.08;2086540;85;20975;-81
2021/11/18 06:55:05;;;;;;;28.20;18.07;;;;;;;5.94;85.22;99544.42;2087901;84;21420;-81
2021/11/18 06:58:05;;;;;;;24.17;17.13;;;;;;;5.95;84.98;99549.66;2088270;84;20996;-82
2021/11/18 07:01:06;;;;;;;32.00;20.27;;;;;;;5.91;84.90;99551.66;2087495;85;20995;-81
2021/11/18 07:04:07;;;;;;;35.13;19.73;;;;;;;5.91;84.75;99563.72;2087352;85;20981;-80
2021/11/18 07:07:08;;;;;;;29.60;18.27;;;;;;;5.94;84.66;99562.55;2086857;85;20948;-80
2021/11/18 07:10:08;;;;;;;43.33;21.87;;;;;;;5.97;84.41;99561.39;2086322;85;21364;-81
2021/11/18 07:13:09;;;;;;;49.77;25.47;;;;;;;5.96;84.34;99564.80;2086221;85;21395;-80
2021/11/18 07:16:10;;;;;;;36.97;22.67;;;;;;;5.97;86.03;99565.27;2087798;85;21019;-80
2021/11/18 07:19:10;;;;;;;39.77;21.93;;;;;;;6.08;84.30;99575.70;2086980;85;20984;-79
2021/11/18 07:22:11;;;;;;;46.40;24.43;;;;;;;6.01;84.14;99575.83;2086994;84;21008;-81
2021/11/18 07:25:11;;;;;;;32.30;21.53;;;;;;;5.94;84.31;99579.40;2086888;85;21024;-79
2021/11/18 07:28:12;;;;;;;34.20;16.93;;;;;;;5.82;84.72;99577.14;2087238;85;21265;-78
2021/11/18 07:31:12;;;;;;;32.97;18.47;;;;;;;5.72;84.04;99584.94;2086964;85;21379;-80
2021/11/18 07:34:13;;;;;;;42.53;21.83;;;;;;;5.63;84.92;99589.73;2086417;84;20984;-79
2021/11/18 07:37:13;;;;;;;41.40;22.63;;;;;;;5.60;85.14;99589.59;2086523;84;21027;-78
2021/11/18 07:40:14;;;;;;;39.37;24.43;;;;;;;5.55;85.26;99580.74;2086422;85;20953;-78
2021/11/18 07:43:14;;;;;;;46.53;27.53;;;;;;;5.56;85.54;99570.86;2086663;85;20932;-79
2021/11/18 07:46:16;;;;;;;41.20;24.10;;;;;;;5.55;85.76;99575.56;2087664;85;20983;-80
2021/11/18 07:49:16;;;;;;;43.97;27.50;;;;;;;5.59;85.93;99573.58;2087231;85;20945;-80
2021/11/18 07:52:17;;;;;;;45.37;23.83;;;;;;;5.60;85.81;99575.35;2086350;85;21430;-79
2021/11/18 07:55:17;;;;;;;42.57;22.73;;;;;;;5.59;85.72;99582.64;2122450;82;21468;-80
2021/11/18 07:58:18;;;;;;;44.50;25.67;;;;;;;5.63;85.91;99575.48;2129504;83;20964;-80
2021/11/18 08:01:19;;;;;;;46.87;25.13;;;;;;;5.69;86.05;99577.03;2128813;84;21016;-81
2021/11/18 08:04:21;;;;;;;45.93;26.23;;;;;;;5.73;86.11;99575.05;2105668;84;20948;-79
2021/11/18 08:07:22;;;;;;;48.30;29.63;;;;;;;5.76;86.07;99578.18;2129462;84;20971;-79
2021/11/18 08:10:22;;;;;;;39.17;24.97;;;;;;;5.86;86.04;99587.23;2129995;84;20980;-79
2021/11/18 08:13:23;;;;;;;41.10;24.97;;;;;;;5.95;86.05;99588.94;2129271;83;21427;-83
2021/11/18 08:16:23;;;;;;;43.73;27.70;;;;;;;6.03;85.70;99585.84;2128426;84;20996;-79
2021/11/18 08:19:24;;;;;;;43.70;24.33;;;;;;;6.13;85.95;99591.45;2128051;84;20988;-79
2021/11/18 08:22:24;;;;;;;39.13;25.23;;;;;;;6.13;85.90;99594.92;2127642;83;21459;-79
2021/11/18 08:25:25;;;;;;;38.47;23.23;;;;;;;6.14;85.75;99594.09;2128796;84;20964;-83
2021/11/18 08:28:26;;;;;;;33.90;19.57;;;;;;;6.12;85.54;99606.11;2128666;84;20985;-82
2021/11/18 08:31:26;;;;;;;52.50;28.30;;;;;;;6.09;85.76;99602.09;2129681;84;21047;-80
2021/11/18 08:34:27;;;;;;;45.87;26.37;;;;;;;6.75;93.94;99608.22;2129829;84;21052;-80
2021/11/18 08:40:52;;;;;;;40.08;22.77;;;;;;;7.49;81.99;99605.41;2130190;84;20976;-80
2021/11/18 08:43:54;;;;;;;35.93;21.53;;;;;;;6.95;82.02;99600.83;2130415;84;20988;-79
2021/11/18 08:46:55;;;;;;;41.53;25.13;;;;;;;6.74;83.03;99618.13;2128990;84;20933;-78
2021/11/18 08:49:55;;;;;;;30.70;19.90;;;;;;;6.62;83.57;99617.23;2129009;84;20989;-80
2021/11/18 08:52:56;;;;;;;38.70;20.57;;;;;;;6.60;83.73;99618.88;2128197;84;21019;-79
2021/11/18 08:55:57;;;;;;;33.87;19.50;;;;;;;6.66;83.78;99628.62;2129688;83;21012;-80
2021/11/18 08:58:58;;;;;;;34.93;21.60;;;;;;;6.70;83.75;99627.50;2132493;83;21031;-79
2021/11/18 09:01:58;;;;;;;37.27;20.20;;;;;;;6.78;83.92;99630.39;2133221;83;21363;-81
2021/11/18 09:04:59;;;;;;;35.53;21.07;;;;;;;6.90;82.94;99632.58;2132769;83;21455;-80
2021/11/18 09:07:59;;;;;;;30.73;18.30;;;;;;;6.97;83.03;99637.22;2133008;83;21471;-79
2021/11/18 09:11:00;;;;;;;34.27;19.47;;;;;;;7.06;82.99;99634.97;2132476;83;21025;-81
2021/11/18 09:14:01;;;;;;;32.03;17.33;;;;;;;7.08;82.66;99634.62;2131413;83;20989;-79
2021/11/18 09:17:01;;;;;;;38.17;21.00;;;;;;;7.16;82.53;99629.72;2132451;83;20952;-81
2021/11/18 09:20:02;;;;;;;36.00;19.53;;;;;;;7.14;82.16;99637.86;2132825;83;20940;-79
2021/11/18 09:23:02;;;;;;;39.10;19.87;;;;;;;7.06;81.98;99633.67;2132684;83;21439;-78
2021/11/18 09:26:03;;;;;;;37.67;18.80;;;;;;;6.99;81.81;99644.23;2132845;83;20996;-81
2021/11/18 09:29:03;;;;;;;45.10;18.87;;;;;;;6.93;81.30;99649.57;2133153;83;20996;-80
2021/11/18 09:32:04;;;;;;;37.23;20.10;;;;;;;6.86;81.93;99643.26;2132771;83;20984;-80
2021/11/18 09:35:05;;;;;;;34.47;17.57;;;;;;;6.86;82.24;99643.26;2131739;83;21502;-80
2021/11/18 09:38:06;;;;;;;93.00;56.10;;;;;;;6.91;82.23;99636.95;2131684;83;20933;-80
2021/11/18 09:41:06;;;;;;;510.53;375.20;;;;;;;7.04;84.39;99635.33;2132121;83;20991;-82
2021/11/18 09:44:07;;;;;;;89.80;57.70;;;;;;;8.20;87.47;99632.63;2132218;83;21015;-80
2021/11/18 09:47:07;;;;;;;34.10;17.03;;;;;;;8.58;79.11;99629.14;2132853;83;21016;-80
2021/11/18 09:50:08;;;;;;;29.60;16.70;;;;;;;8.17;77.06;99629.93;2132764;83;20975;-80
2021/11/18 09:53:08;;;;;;;31.17;17.13;;;;;;;7.95;78.50;99635.23;2132862;83;21123;-79
2021/11/18 09:56:09;;;;;;;30.27;15.93;;;;;;;7.72;78.89;99636.98;2131646;83;21016;-79
2021/11/18 09:59:10;;;;;;;29.57;15.47;;;;;;;7.46;79.10;99642.54;2130304;83;20952;-78
2021/11/18 10:02:10;;;;;;;32.70;16.27;;;;;;;7.18;79.32;99636.73;2131712;83;20964;-80
2021/11/18 10:05:11;;;;;;;27.50;14.33;;;;;;;7.05;79.86;99640.11;2131740;83;20968;-78
2021/11/18 10:08:11;;;;;;;27.50;13.90;;;;;;;6.95;79.70;99633.27;2131715;83;20964;-78
2021/11/18 10:11:12;;;;;;;41.87;18.43;;;;;;;6.88;80.14;99628.63;2132296;83;20968;-80
2021/11/18 10:14:12;;;;;;;37.90;17.13;;;;;;;6.88;80.35;99626.03;2131990;83;20976;-77
2021/11/18 10:17:13;;;;;;;32.03;14.93;;;;;;;6.85;80.10;99633.70;2132582;83;20988;-78
2021/11/18 10:20:14;;;;;;;26.67;14.37;;;;;;;6.81;80.16;99633.11;2132711;83;20992;-79
2021/11/18 10:23:14;;;;;;;30.93;14.03;;;;;;;6.79;79.82;99635.17;2132782;83;21027;-79
2021/11/18 10:26:15;;;;;;;25.53;13.37;;;;;;;6.76;80.00;99629.86;2133174;83;21004;-80
2021/11/18 10:29:15;;;;;;;33.00;12.93;;;;;;;6.80;80.03;99633.05;2134051;83;21003;-81
2021/11/18 10:35:18;;;;;;;32.53;13.00;;;;;;;6.95;80.07;99638.45;2106285;83;21020;-81
2021/11/18 10:38:19;;;;;;;28.20;12.47;;;;;;;6.96;79.59;99636.33;2134271;83;20977;-82
2021/11/18 10:41:20;;;;;;;28.23;12.23;;;;;;;6.93;79.97;99639.19;2133961;83;21371;-80
2021/11/18 10:44:21;;;;;;;28.90;11.97;;;;;;;6.92;79.29;99632.23;2133792;83;21715;-81
2021/11/18 10:47:22;;;;;;;733.43;534.47;;;;;;;6.92;79.27;99630.93;2133217;83;20924;-81
2021/11/18 10:50:22;;;;;;;82.27;41.97;;;;;;;8.48;90.73;99616.25;2132561;83;21031;-80
2021/11/18 10:53:23;;;;;;;27.97;11.60;;;;;;;9.28;73.01;99609.19;2133628;83;21024;-79
2021/11/18 10:56:23;;;;;;;25.13;10.83;;;;;;;8.58;73.92;99614.83;2113245;83;21039;-79
2021/11/18 10:59:24;;;;;;;24.50;11.10;;;;;;;8.06;74.89;99614.80;2108486;84;20955;-80
2021/11/18 11:02:24;;;;;;;23.60;10.33;;;;;;;7.69;75.29;99621.28;2107103;84;20952;-81
2021/11/18 11:05:25;;;;;;;30.53;11.10;;;;;;;7.46;76.36;99620.46;2107674;84;20967;-80
2021/11/18 11:08:25;;;;;;;24.63;11.23;;;;;;;7.30;76.56;99610.34;2108067;84;21351;-81
2021/11/18 11:11:27;;;;;;;32.10;12.63;;;;;;;7.24;76.66;99606.22;2108809;84;20967;-79
2021/11/18 11:14:27;;;;;;;22.87;10.60;;;;;;;7.26;76.42;99599.38;2108116;84;21039;-80
2021/11/18 11:17:28;;;;;;;26.73;11.27;;;;;;;7.26;76.42;99599.38;2108898;84;21040;-80
2021/11/18 11:20:28;;;;;;;28.57;12.30;;;;;;;7.25;76.46;99604.98;2108769;84;21054;-81
2021/11/18 11:23:29;;;;;;;21.50;10.83;;;;;;;7.21;76.50;99604.81;2107955;84;21055;-83
2021/11/18 11:26:29;;;;;;;20.50;10.03;;;;;;;7.19;76.76;99614.25;2108217;84;21006;-82
2021/11/18 11:29:30;;;;;;;23.10;9.93;;;;;;;7.15;76.88;99604.58;2107892;84;20964;-81
2021/11/18 11:32:31;;;;;;;25.33;11.37;;;;;;;7.09;76.80;99598.75;2107875;84;20960;-82
2021/11/18 11:35:31;;;;;;;25.50;12.17;;;;;;;7.11;76.90;99600.10;2107545;84;21419;-81
2021/11/18 11:38:32;;;;;;;27.53;12.23;;;;;;;7.15;76.75;99594.20;2107851;83;21383;-81
2021/11/18 11:41:32;;;;;;;20.97;9.40;;;;;;;7.22;77.14;99589.28;2108047;84;20975;-78
2021/11/18 11:44:33;;;;;;;24.73;11.67;;;;;;;7.22;76.11;99593.59;2108428;84;21003;-78
2021/11/18 11:47:33;;;;;;;22.33;9.23;;;;;;;7.20;76.84;99596.55;2108224;84;20951;-79
2021/11/18 11:50:34;;;;;;;31.53;15.13;;;;;;;7.22;75.64;99595.78;2108622;83;20963;-79
2021/11/18 11:53:34;;;;;;;23.63;9.83;;;;;;;7.23;76.52;99601.44;2108251;84;21050;-78
2021/11/18 11:56:35;;;;;;;23.43;8.97;;;;;;;7.30;75.97;99602.55;2126364;83;21086;-81
2021/11/18 11:59:36;;;;;;;23.50;9.37;;;;;;;7.35;75.26;99600.59;2132015;83;20928;-82
2021/11/18 12:02:36;;;;;;;20.93;9.57;;;;;;;7.44;75.88;99602.64;2132117;83;20958;-83
2021/11/18 12:05:37;;;;;;;22.70;10.77;;;;;;;7.49;74.72;99607.58;2132103;83;21401;-82
2021/11/18 12:08:37;;;;;;;21.40;9.70;;;;;;;7.52;74.69;99612.01;2133478;83;20982;-81
2021/11/18 12:11:38;;;;;;;30.47;12.00;;;;;;;7.57;74.66;99602.25;2134048;83;20932;-81
2021/11/18 12:14:38;;;;;;;129.83;82.60;;;;;;;7.59;74.68;99603.19;2133316;83;20983;-82
2021/11/18 12:17:39;;;;;;;32.47;16.70;;;;;;;7.71;76.07;99601.85;2134116;83;21047;-82
2021/11/18 12:20:40;;;;;;;16.07;7.80;;;;;;;8.16;72.21;99607.36;2135038;83;20956;-85
2021/11/18 12:23:40;;;;;;;21.17;8.40;;;;;;;7.94;71.42;99601.84;2133672;83;21034;-82
2021/11/18 12:29:43;;;;;;;18.17;9.13;;;;;;;7.82;72.64;99593.62;2110131;83;20983;-83
2021/11/18 12:32:44;;;;;;;17.43;8.63;;;;;;;7.79;71.78;99586.11;2133759;83;20996;-84
2021/11/18 12:35:45;;;;;;;21.53;9.27;;;;;;;7.78;72.36;99590.84;2132895;83;20996;-82
2021/11/18 12:38:45;;;;;;;18.17;9.53;;;;;;;7.70;71.12;99598.78;2132258;83;20962;-78
2021/11/18 12:41:46;;;;;;;23.33;10.60;;;;;;;7.58;72.11;99596.22;2133088;83;21356;-82
2021/11/18 12:44:47;;;;;;;27.47;11.30;;;;;;;7.44;72.18;99595.26;2133114;83;21002;-82
2021/11/18 12:47:48;;;;;;;20.17;9.53;;;;;;;7.34;71.97;99598.83;2132718;83;21012;-80
2021/11/18 12:50:51;;;;;;;18.80;9.40;;;;;;;7.34;71.82;99592.33;2133346;83;21008;-84
2021/11/18 12:53:52;;;;;;;21.90;9.30;;;;;;;7.34;72.50;99583.66;2134091;83;21032;-83
2021/11/18 12:56:52;;;;;;;25.53;9.60;;;;;;;7.37;71.84;99579.88;2097423;83;21424;-84
2021/11/18 12:59:53;;;;;;;29.43;12.57;;;;;;;7.35;72.06;99586.72;2088615;84;20984;-83
2021/11/18 13:06:31;;;;;;;31.17;15.37;;;;;;;7.40;72.46;99595.56;2087559;85;21011;-83
2021/11/18 13:09:31;;;;;;;31.03;13.43;;;;;;;7.41;71.83;99598.63;2088626;85;20992;-81
2021/11/18 13:12:32;;;;;;;32.20;13.13;;;;;;;7.40;72.01;99590.37;2087557;85;20996;-81
2021/11/18 13:15:32;;;;;;;35.47;16.03;;;;;;;7.37;71.46;99586.36;2087603;85;21443;-83
2021/11/18 13:18:33;;;;;;;35.83;15.67;;;;;;;7.38;72.20;99586.83;2086763;85;20924;-82
2021/11/18 13:21:33;;;;;;;29.83;13.17;;;;;;;7.39;71.13;99582.11;2087384;85;20987;-82
2021/11/18 13:24:34;;;;;;;21.90;12.03;;;;;;;7.34;71.03;99582.36;2087106;85;21010;-81
2021/11/18 13:27:35;;;;;;;27.87;12.40;;;;;;;7.34;71.82;99587.14;2087301;85;20996;-82
2021/11/18 13:30:35;;;;;;;191.43;119.37;;;;;;;7.39;71.63;99576.91;2085862;85;20964;-82
2021/11/18 13:33:37;;;;;;;69.00;39.33;;;;;;;8.40;75.58;99563.50;2086466;85;20975;-80
2021/11/18 13:36:37;;;;;;;27.53;14.67;;;;;;;9.49;70.35;99572.02;2086242;85;21022;-81
2021/11/18 13:39:38;;;;;;;30.37;14.97;;;;;;;8.87;66.24;99570.20;2086816;85;20964;-81
2021/11/18 13:42:39;;;;;;;41.73;13.23;;;;;;;8.25;68.66;99576.45;2086517;85;20956;-81
2021/11/18 13:45:42;;;;;;;26.57;8.80;;;;;;;7.92;69.24;99573.62;2087354;85;21056;-81
2021/11/18 13:48:41;;;;;;;17.47;9.00;;;;;;;7.71;69.08;99573.27;2087479;85;20959;-80
2021/11/18 13:51:42;;;;;;;31.87;10.80;;;;;;;7.55;70.56;99564.94;2087354;85;20988;-82
2021/11/18 13:54:43;;;;;;;21.43;10.37;;;;;;;7.46;71.05;99556.82;2087586;85;21031;-81
2021/11/18 13:57:43;;;;;;;25.60;10.17;;;;;;;7.45;71.34;99550.27;2086952;83;21007;-83
2021/11/18 14:00:44;;;;;;;28.00;11.40;;;;;;;7.44;71.63;99565.39;2087325;85;21348;-81
2021/11/18 14:03:44;;;;;;;33.53;9.67;;;;;;;7.35;71.53;99560.75;2087143;85;21281;-81
2021/11/18 14:06:45;;;;;;;21.47;9.33;;;;;;;7.25;72.00;99566.44;2086700;85;21395;-81
2021/11/18 14:09:45;;;;;;;21.17;8.23;;;;;;;7.25;72.00;99566.44;2086762;85;20968;-82
2021/11/18 14:12:46;;;;;;;19.47;9.20;;;;;;;7.19;71.81;99572.30;2086671;85;20992;-80
2021/11/18 14:15:46;;;;;;;21.97;8.83;;;;;;;7.15;72.18;99577.31;2086081;85;20995;-80
2021/11/18 14:18:47;;;;;;;19.80;9.20;;;;;;;7.16;72.44;99581.27;2086645;85;20987;-81